Flight Track Log - Related Links

Times and Time Zones

All times are in EDT time to prevent confusion due to time zone crossing. See the SWA1031 flight status page for this flight to view local times or setup timezone preferences in your user account.


Time Position Orientation Groundspeed Altitude Reporting Facility
EDT Latitude Longitude Course Direction KTS MPH feet Rate Location/Type
Wed 07:55:02 AM 42.2017 -83.3583 190° South 136 157 1,700  Level Cleveland Center
Wed 07:56:15 AM 42.1428 -83.3725 190° South 201 231 4,600 2,571 Climbing Cleveland Center
Wed 07:57:22 AM 42.0714 -83.3917 191° South 268 308 7,700 3,031 Climbing Cleveland Center
Wed 07:57:52 AM 42.0342 -83.3789 166° South 267 307 9,500 1,600 Climbing Cleveland Center
Wed 07:58:52 AM 42.0161 -83.2719 103° East 336 387 10,100 1,600 Climbing Cleveland Center
Wed 07:59:52 AM 42.0289 -83.1606 81° East 369 425 12,700 2,550 Climbing Cleveland Center
Wed 08:00:52 AM 42.0403 -83.0297 83° East 363 418 15,200 2,850 Climbing Cleveland Center
Wed 08:01:52 AM 42.0533 -82.8931 83° East 363 418 18,400 3,100 Climbing Cleveland Center
Wed 08:02:52 AM 42.0644 -82.7481 84° East 368 423 21,400 2,900 Climbing Cleveland Center
Wed 08:03:52 AM 42.0797 -82.5975 82° East 387 445 24,200 2,700 Climbing Cleveland Center
Wed 08:04:52 AM 42.0803 -82.4436 90° East 399 459 26,800 2,400 Climbing Cleveland Center
Wed 08:05:52 AM 42.0578 -82.2864 101° East 411 473 29,000 1,600 Climbing Cleveland Center
Wed 08:06:52 AM 42.0311 -82.1094 101° East 419 482 30,000 1,150 Climbing Cleveland Center
Wed 08:07:52 AM 41.9511 -81.9958 133° Southeast 403 464 31,300 1,700 Climbing Cleveland Center
Wed 08:08:52 AM 41.8522 -81.9017 145° Southeast 403 464 33,400 1,850 Climbing Cleveland Center
Wed 08:09:52 AM 41.7553 -81.8078 144° Southeast 417 480 35,000 1,450 Climbing Cleveland Center
Wed 08:10:52 AM 41.6564 -81.7142 145° Southeast 432 497 36,300 1,500 Climbing Cleveland Center
Wed 08:11:52 AM 41.5592 -81.6211 144° Southeast 437 503 38,000 1,500 Climbing Cleveland Center
Wed 08:12:52 AM 41.4578 -81.5389 149° Southeast 437 503 39,300 1,250 Climbing Cleveland Center
Wed 08:13:52 AM 41.3561 -81.4850 158° South 432 497 40,500 850 Climbing Cleveland Center
Wed 08:14:52 AM 41.2419 -81.4281 159° South 432 497 41,000 250 Climbing Cleveland Center
Wed 08:15:52 AM 41.1317 -81.3742 160° South 432 497 41,000  Level Cleveland Center
Wed 08:16:52 AM 41.0111 -81.3150 160° South 426 490 41,000  Level Cleveland Center
Wed 08:17:52 AM 40.9031 -81.2617 160° South 421 484 41,000  Level Cleveland Center
Wed 08:18:52 AM 40.7950 -81.2058 159° South 421 484 41,000  Level Cleveland Center
Wed 08:19:52 AM 40.6869 -81.1528 160° South 421 484 41,000  Level Cleveland Center
Wed 08:20:52 AM 40.5767 -81.0942 158° South 421 484 41,000  Level Cleveland Center
Wed 08:21:52 AM 40.4811 -81.0061 145° Southeast 427 491 41,000  Level Cleveland Center
Wed 08:22:52 AM 40.4044 -80.8803 129° Southeast 432 497 41,000  Level Cleveland Center
Wed 08:23:52 AM 40.3256 -80.7628 131° Southeast 432 497 41,000  Level Cleveland Center
Wed 08:24:52 AM 40.2547 -80.6539 130° Southeast 439 505 41,000  Level Cleveland Center
Wed 08:25:52 AM 40.1733 -80.5314 131° Southeast 439 505 41,000  Level Cleveland Center
Wed 08:26:52 AM 40.1003 -80.4039 127° Southeast 439 505 41,000  Level Cleveland Center
Wed 08:27:52 AM 40.0436 -80.2386 114° Southeast 445 512 41,000 -200 Level Cleveland Center
Wed 08:28:52 AM 39.9953 -80.0900 113° Southeast 445 512 40,600 -1,400 Descending Cleveland Center
Wed 08:29:52 AM 39.9467 -79.9439 113° Southeast 445 512 38,200 -2,450 Descending Cleveland Center
Wed 08:30:52 AM 39.8956 -79.7931 114° Southeast 445 512 35,700 -2,354 Descending Cleveland Center
Wed 08:32:53 AM 39.8003 -79.5050 113° Southeast 419 482 31,100 -2,258 Descending Washington Center
Wed 08:33:50 AM 39.7525 -79.3647 114° Southeast 419 482 29,000 -2,118 Descending Washington Center
Wed 08:34:52 AM 39.7069 -79.2275 113° Southeast 407 468 26,900 -1,967 Descending Washington Center
Wed 08:35:52 AM 39.6628 -79.0986 114° Southeast 393 452 25,000 -934 Descending Washington Center
Wed 08:36:54 AM 39.6331 -78.9650 106° East 388 447 25,000  Level Washington Center
Wed 08:37:51 AM 39.6036 -78.8289 106° East 388 447 25,000 -872 Level Washington Center
Wed 08:38:51 AM 39.5758 -78.6958 105° East 388 447 23,300 -1,785 Descending Washington Center
Wed 08:39:52 AM 39.5478 -78.5733 107° East 376 433 21,400 -1,820 Descending Washington Center
Wed 08:40:53 AM 39.5194 -78.4458 106° East 370 426 19,600 -1,736 Descending Washington Center
Wed 08:41:53 AM 39.4931 -78.3292 106° East 358 412 17,900 -1,525 Descending Washington Center
Wed 08:42:51 AM 39.4703 -78.2261 106° East 347 399 16,600 -1,513 Descending Washington Center
Wed 08:43:52 AM 39.4436 -78.1097 106° East 336 387 14,900 -1,328 Descending Washington Center
Wed 08:44:53 AM 39.4167 -77.9931 107° East 336 387 13,900 -992 Descending Washington Center
Wed 08:45:53 AM 39.3919 -77.8794 106° East 336 387 12,900 -1,008 Descending Washington Center
Wed 08:46:52 AM 39.3942 -77.7614 89° East 326 375 11,900 -958 Descending Washington Center
Wed 08:47:52 AM 39.4108 -77.6464 79° East 320 368 11,000 -446 Descending Washington Center
Wed 08:48:53 AM 39.4228 -77.5394 82° East 309 356 11,000  Level Washington Center
Wed 08:49:51 AM 39.4369 -77.4375 80° East 298 343 11,000 67 Level Washington Center
Wed 08:50:22 AM 39.4500 -77.3667 77° East 294 338 11,100  Climbing Potomac TRACON
Wed 08:51:22 AM 39.4667 -77.2667 78° East 295 339 11,000 -50 Descending Potomac TRACON
Wed 08:52:22 AM 39.4667 -77.1500 90° East 297 342 11,000 -526 Level Potomac TRACON
Wed 08:53:16 AM 39.4667 -77.0667 90° East 295 339 10,000 -1,053 Descending Potomac TRACON
Wed 08:54:16 AM 39.4667 -76.9500 90° East 292 336 9,000 -1,000 Descending Potomac TRACON
Wed 08:55:16 AM 39.4500 -76.8500 102° East 289 333 8,000 -947 Descending Potomac TRACON
Wed 08:56:10 AM 39.4500 -76.7667 90° East 291 335 7,200 -1,000 Descending Potomac TRACON
Wed 08:57:16 AM 39.4333 -76.6500 100° East 285 328 6,000 -1,000 Descending Potomac TRACON
Wed 08:58:10 AM 39.4167 -76.5667 104° East 279 321 5,200 -526 Descending Potomac TRACON
Wed 08:59:10 AM 39.3833 -76.5000 123° Southeast 267 307 5,000 -400 Descending Potomac TRACON
Wed 09:00:10 AM 39.3167 -76.4667 159° South 261 300 4,400 -496 Descending Potomac TRACON
Wed 09:01:11 AM 39.2500 -76.4333 159° South 248 285 4,000 -209 Descending Potomac TRACON
Wed 09:02:05 AM 39.2000 -76.4167 166° South 210 242 4,000 -526 Level Potomac TRACON
Wed 09:03:05 AM 39.1333 -76.4500 201° Southwest 211 243 3,000 -550 Descending Potomac TRACON
Wed 09:04:05 AM 39.0833 -76.4667 195° South 199 229 2,900 -100 Descending Potomac TRACON
Wed 09:05:05 AM 39.0667 -76.5333 252° West 190 219 2,800 -400 Descending Potomac TRACON
Wed 09:06:05 AM 39.0833 -76.5833 293° West 175 201 2,100 -800 Descending Potomac TRACON
Wed 09:07:05 AM 39.1167 -76.6167 322° Northwest 155 178 1,200 -800 Descending Potomac TRACON
Wed 09:08:05 AM 39.1500 -76.6500 322° Northwest 133 153 500 -700 Descending Potomac TRACON

Login

Don't have an account? Register now (free) for customized features, flight alerts, and more!